sensor_id;sensor_type;location;lat;lon;timestamp;pressure;altitude;pressure_sealevel;temperature;humidity
10732;BME280;5417;42.686;23.244;2023-04-23T00:07:18;94236.81;;;11.19;69.17
10732;BME280;5417;42.686;23.244;2023-04-23T00:10:58;94240.38;;;11.18;68.63
10732;BME280;5417;42.686;23.244;2023-04-23T00:13:22;94231.69;;;11.07;69.26
10732;BME280;5417;42.686;23.244;2023-04-23T00:15:50;94244.06;;;11.15;69.22
10732;BME280;5417;42.686;23.244;2023-04-23T00:18:17;94235.00;;;11.10;69.19
10732;BME280;5417;42.686;23.244;2023-04-23T00:20:45;94239.81;;;11.14;69.48
10732;BME280;5417;42.686;23.244;2023-04-23T00:29:50;94237.31;;;11.03;69.56
10732;BME280;5417;42.686;23.244;2023-04-23T00:32:17;94223.97;;;10.96;69.63
10732;BME280;5417;42.686;23.244;2023-04-23T00:35:07;94238.53;;;10.99;69.90
10732;BME280;5417;42.686;23.244;2023-04-23T00:37:34;94218.03;;;10.85;69.95
10732;BME280;5417;42.686;23.244;2023-04-23T00:40:05;94233.56;;;10.96;70.29
10732;BME280;5417;42.686;23.244;2023-04-23T00:52:27;94232.69;;;10.86;70.00
10732;BME280;5417;42.686;23.244;2023-04-23T00:54:55;94238.31;;;10.91;69.43
10732;BME280;5417;42.686;23.244;2023-04-23T00:57:22;94238.31;;;10.91;69.68
10732;BME280;5417;42.686;23.244;2023-04-23T01:00:11;94239.66;;;10.85;69.65
10732;BME280;5417;42.686;23.244;2023-04-23T01:08:53;94241.97;;;10.79;70.04
10732;BME280;5417;42.686;23.244;2023-04-23T01:11:20;94226.75;;;10.74;69.94
10732;BME280;5417;42.686;23.244;2023-04-23T01:13:47;94236.34;;;10.73;69.49
10732;BME280;5417;42.686;23.244;2023-04-23T01:16:14;94240.84;;;10.71;69.83
10732;BME280;5417;42.686;23.244;2023-04-23T01:19:36;94239.75;;;10.74;70.53
10732;BME280;5417;42.686;23.244;2023-04-23T01:21:55;94245.78;;;10.74;71.08
10732;BME280;5417;42.686;23.244;2023-04-23T01:24:27;94239.06;;;10.72;71.07
10732;BME280;5417;42.686;23.244;2023-04-23T01:33:31;94243.16;;;10.65;70.66
10732;BME280;5417;42.686;23.244;2023-04-23T01:39:24;94229.25;;;10.55;70.75
10732;BME280;5417;42.686;23.244;2023-04-23T01:41:52;94243.66;;;10.59;70.18
10732;BME280;5417;42.686;23.244;2023-04-23T01:44:19;94241.56;;;10.53;69.92
10732;BME280;5417;42.686;23.244;2023-04-23T01:46:46;94245.13;;;10.52;69.91
10732;BME280;5417;42.686;23.244;2023-04-23T01:49:52;94246.47;;;10.46;70.02
10732;BME280;5417;42.686;23.244;2023-04-23T01:52:19;94244.94;;;10.43;70.36
10732;BME280;5417;42.686;23.244;2023-04-23T01:54:46;94228.31;;;10.35;70.63
10732;BME280;5417;42.686;23.244;2023-04-23T01:57:14;94238.72;;;10.35;70.15
10732;BME280;5417;42.686;23.244;2023-04-23T02:06:41;94248.09;;;10.26;69.88
10732;BME280;5417;42.686;23.244;2023-04-23T02:09:12;94245.75;;;10.23;70.25
10732;BME280;5417;42.686;23.244;2023-04-23T02:11:39;94250.13;;;10.23;69.98
10732;BME280;5417;42.686;23.244;2023-04-23T02:14:08;94247.66;;;10.21;70.17
10732;BME280;5417;42.686;23.244;2023-04-23T02:16:38;94248.59;;;10.20;70.37
10732;BME280;5417;42.686;23.244;2023-04-23T02:26:25;94258.53;;;10.15;70.31
10732;BME280;5417;42.686;23.244;2023-04-23T02:28:47;94254.78;;;10.08;70.31
10732;BME280;5417;42.686;23.244;2023-04-23T02:31:15;94258.53;;;10.15;70.21
10732;BME280;5417;42.686;23.244;2023-04-23T02:34:10;94251.69;;;10.14;70.41
10732;BME280;5417;42.686;23.244;2023-04-23T02:37:02;94261.50;;;10.10;70.66
10732;BME280;5417;42.686;23.244;2023-04-23T02:39:29;94251.63;;;10.04;70.63
10732;BME280;5417;42.686;23.244;2023-04-23T02:42:10;94254.91;;;10.06;69.95
10732;BME280;5417;42.686;23.244;2023-04-23T02:45:31;94259.41;;;10.04;70.47
10732;BME280;5417;42.686;23.244;2023-04-23T02:47:53;94255.41;;;10.00;70.44
10732;BME280;5417;42.686;23.244;2023-04-23T02:51:12;94252.56;;;10.03;70.68
10732;BME280;5417;42.686;23.244;2023-04-23T02:53:32;94249.25;;;10.01;71.33
10732;BME280;5417;42.686;23.244;2023-04-23T02:55:59;94262.84;;;10.05;71.51
10732;BME280;5417;42.686;23.244;2023-04-23T03:13:45;94273.66;;;9.89;70.53
10732;BME280;5417;42.686;23.244;2023-04-23T03:19:25;94276.25;;;9.89;71.52
10732;BME280;5417;42.686;23.244;2023-04-23T03:25:07;94272.94;;;9.87;70.88
10732;BME280;5417;42.686;23.244;2023-04-23T03:50:37;94280.84;;;9.97;71.59
10732;BME280;5417;42.686;23.244;2023-04-23T03:56:19;94261.13;;;9.94;71.63
10732;BME280;5417;42.686;23.244;2023-04-23T03:58:46;94275.13;;;10.03;71.84
10732;BME280;5417;42.686;23.244;2023-04-23T04:01:13;94284.66;;;10.13;71.89
10732;BME280;5417;42.686;23.244;2023-04-23T04:03:41;94291.97;;;10.20;71.75
10732;BME280;5417;42.686;23.244;2023-04-23T04:06:09;94272.09;;;10.19;71.98
10732;BME280;5417;42.686;23.244;2023-04-23T04:08:36;94292.63;;;10.33;71.08
10732;BME280;5417;42.686;23.244;2023-04-23T04:11:03;94291.19;;;10.40;70.85
10732;BME280;5417;42.686;23.244;2023-04-23T04:13:29;94270.28;;;10.41;70.78
10732;BME280;5417;42.686;23.244;2023-04-23T04:15:56;94257.38;;;10.61;70.56
10732;BME280;5417;42.686;23.244;2023-04-23T04:18:23;94290.41;;;11.21;69.62
10732;BME280;5417;42.686;23.244;2023-04-23T04:20:50;94286.44;;;11.67;67.84
10732;BME280;5417;42.686;23.244;2023-04-23T04:26:21;94286.31;;;13.04;62.68
10732;BME280;5417;42.686;23.244;2023-04-23T04:28:50;94290.47;;;13.71;61.73
10732;BME280;5417;42.686;23.244;2023-04-23T04:31:43;94292.28;;;14.51;58.57
10732;BME280;5417;42.686;23.244;2023-04-23T04:34:10;94287.69;;;15.14;56.29
10732;BME280;5417;42.686;23.244;2023-04-23T04:37:02;94282.81;;;15.96;53.91
10732;BME280;5417;42.686;23.244;2023-04-23T04:39:29;94279.66;;;16.67;51.18
10732;BME280;5417;42.686;23.244;2023-04-23T04:41:58;94288.66;;;17.21;49.75
10732;BME280;5417;42.686;23.244;2023-04-23T04:44:28;94285.94;;;17.54;48.37
10732;BME280;5417;42.686;23.244;2023-04-23T04:47:50;94282.38;;;18.17;47.35
10732;BME280;5417;42.686;23.244;2023-04-23T04:50:10;94294.13;;;18.60;45.89
10732;BME280;5417;42.686;23.244;2023-04-23T04:52:37;94293.09;;;18.69;44.82
10732;BME280;5417;42.686;23.244;2023-04-23T04:56:03;94289.69;;;19.21;44.82
10732;BME280;5417;42.686;23.244;2023-04-23T04:58:17;94285.38;;;19.72;43.26
10732;BME280;5417;42.686;23.244;2023-04-23T05:01:38;94287.97;;;20.16;42.73
10732;BME280;5417;42.686;23.244;2023-04-23T05:03:58;94285.63;;;20.58;40.92
10732;BME280;5417;42.686;23.244;2023-04-23T05:13:02;94288.19;;;20.72;40.43
10732;BME280;5417;42.686;23.244;2023-04-23T05:15:30;94279.63;;;20.92;40.07
10732;BME280;5417;42.686;23.244;2023-04-23T05:17:57;94286.63;;;20.99;39.47
10732;BME280;5417;42.686;23.244;2023-04-23T05:20:26;94295.25;;;21.08;39.14
10732;BME280;5417;42.686;23.244;2023-04-23T05:22:53;94294.16;;;21.24;38.86
10732;BME280;5417;42.686;23.244;2023-04-23T05:25:20;94286.03;;;21.53;38.99
10732;BME280;5417;42.686;23.244;2023-04-23T05:27:47;94290.47;;;21.81;38.23
10732;BME280;5417;42.686;23.244;2023-04-23T05:30:14;94280.25;;;21.78;37.48
10732;BME280;5417;42.686;23.244;2023-04-23T05:35:42;94302.75;;;21.54;38.10
10732;BME280;5417;42.686;23.244;2023-04-23T05:39:04;94276.13;;;20.85;39.42
10732;BME280;5417;42.686;23.244;2023-04-23T05:42:19;94296.34;;;20.35;40.25
10732;BME280;5417;42.686;23.244;2023-04-23T05:44:39;94302.41;;;19.99;41.45
10732;BME280;5417;42.686;23.244;2023-04-23T05:47:06;94304.59;;;19.96;42.09
10732;BME280;5417;42.686;23.244;2023-04-23T05:50:28;94313.44;;;19.59;42.35
10732;BME280;5417;42.686;23.244;2023-04-23T05:52:59;94306.16;;;19.23;42.78
10732;BME280;5417;42.686;23.244;2023-04-23T05:56:25;94318.06;;;19.04;43.02
10732;BME280;5417;42.686;23.244;2023-04-23T06:02:05;94321.78;;;18.41;44.61
10732;BME280;5417;42.686;23.244;2023-04-23T06:04:35;94318.31;;;18.41;44.84
10732;BME280;5417;42.686;23.244;2023-04-23T06:07:02;94317.91;;;18.52;45.04
10732;BME280;5417;42.686;23.244;2023-04-23T06:09:31;94319.84;;;18.89;45.03
10732;BME280;5417;42.686;23.244;2023-04-23T06:12:52;94304.97;;;19.11;44.81
10732;BME280;5417;42.686;23.244;2023-04-23T06:16:19;94313.25;;;19.22;44.55
10732;BME280;5417;42.686;23.244;2023-04-23T06:18:24;94310.22;;;19.48;44.02
10732;BME280;5417;42.686;23.244;2023-04-23T06:20:52;94315.34;;;19.12;43.91
10732;BME280;5417;42.686;23.244;2023-04-23T06:32:48;94316.63;;;19.16;44.12
10732;BME280;5417;42.686;23.244;2023-04-23T06:41:28;94308.78;;;19.08;44.06
10732;BME280;5417;42.686;23.244;2023-04-23T06:43:55;94307.59;;;19.11;44.07
10732;BME280;5417;42.686;23.244;2023-04-23T06:52:42;94313.59;;;19.42;44.76
10732;BME280;5417;42.686;23.244;2023-04-23T06:55:09;94306.94;;;19.46;44.69
10732;BME280;5417;42.686;23.244;2023-04-23T06:57:36;94301.41;;;19.71;45.26
10732;BME280;5417;42.686;23.244;2023-04-23T07:00:58;94303.00;;;19.80;43.59
10732;BME280;5417;42.686;23.244;2023-04-23T07:03:15;94304.25;;;19.84;43.87
10732;BME280;5417;42.686;23.244;2023-04-23T07:12:14;94306.34;;;19.74;43.45
10732;BME280;5417;42.686;23.244;2023-04-23T07:15:05;94304.53;;;19.89;43.99
10732;BME280;5417;42.686;23.244;2023-04-23T07:17:33;94298.66;;;20.08;43.19
10732;BME280;5417;42.686;23.244;2023-04-23T07:45:28;94302.41;;;19.55;43.33
10732;BME280;5417;42.686;23.244;2023-04-23T07:47:57;94296.03;;;19.49;44.25
10732;BME280;5417;42.686;23.244;2023-04-23T07:50:38;94298.06;;;19.10;44.44
10732;BME280;5417;42.686;23.244;2023-04-23T07:53:05;94298.31;;;19.00;45.96
10732;BME280;5417;42.686;23.244;2023-04-23T07:59:02;94296.38;;;19.32;45.00
10732;BME280;5417;42.686;23.244;2023-04-23T08:01:48;94309.13;;;19.28;44.52
10732;BME280;5417;42.686;23.244;2023-04-23T08:04:18;94299.56;;;19.27;44.93
10732;BME280;5417;42.686;23.244;2023-04-23T08:07:39;94296.44;;;19.23;45.36
10732;BME280;5417;42.686;23.244;2023-04-23T08:10:50;94297.28;;;19.39;45.08
10732;BME280;5417;42.686;23.244;2023-04-23T08:13:10;94294.19;;;19.35;44.28
10732;BME280;5417;42.686;23.244;2023-04-23T08:15:37;94293.91;;;19.30;44.36
10732;BME280;5417;42.686;23.244;2023-04-23T08:18:05;94296.94;;;19.42;44.49
10732;BME280;5417;42.686;23.244;2023-04-23T08:23:53;94294.59;;;19.62;43.74
10732;BME280;5417;42.686;23.244;2023-04-23T08:26:19;94287.84;;;19.59;43.98
10732;BME280;5417;42.686;23.244;2023-04-23T08:28:48;94274.81;;;19.72;43.99
10732;BME280;5417;42.686;23.244;2023-04-23T08:31:15;94280.19;;;19.94;43.20
10732;BME280;5417;42.686;23.244;2023-04-23T08:37:48;94282.91;;;20.00;42.77
10732;BME280;5417;42.686;23.244;2023-04-23T08:40:20;94272.81;;;19.89;43.44
10732;BME280;5417;42.686;23.244;2023-04-23T08:42:49;94264.34;;;19.49;43.38
10732;BME280;5417;42.686;23.244;2023-04-23T08:45:40;94269.66;;;19.79;44.04
10732;BME280;5417;42.686;23.244;2023-04-23T08:48:10;94269.34;;;19.74;42.51
10732;BME280;5417;42.686;23.244;2023-04-23T08:50:59;94264.72;;;19.46;43.79
10732;BME280;5417;42.686;23.244;2023-04-23T08:59:57;94258.88;;;19.95;42.90
10732;BME280;5417;42.686;23.244;2023-04-23T09:03:23;94257.00;;;20.10;42.75
10732;BME280;5417;42.686;23.244;2023-04-23T09:11:43;94251.94;;;20.66;41.61
10732;BME280;5417;42.686;23.244;2023-04-23T09:14:11;94256.34;;;20.59;40.66
10732;BME280;5417;42.686;23.244;2023-04-23T09:16:40;94254.47;;;20.02;41.08
10732;BME280;5417;42.686;23.244;2023-04-23T09:19:08;94250.31;;;19.93;41.49
10732;BME280;5417;42.686;23.244;2023-04-23T09:21:37;94246.59;;;19.88;41.60
10732;BME280;5417;42.686;23.244;2023-04-23T09:24:05;94252.91;;;20.08;42.12
10732;BME280;5417;42.686;23.244;2023-04-23T09:26:31;94247.06;;;20.12;41.59
10732;BME280;5417;42.686;23.244;2023-04-23T09:28:58;94242.28;;;20.01;43.02
10732;BME280;5417;42.686;23.244;2023-04-23T09:31:25;94239.75;;;19.93;43.28
10732;BME280;5417;42.686;23.244;2023-04-23T09:33:53;94241.84;;;19.98;43.85
10732;BME280;5417;42.686;23.244;2023-04-23T09:36:21;94237.47;;;19.90;43.10
10732;BME280;5417;42.686;23.244;2023-04-23T09:38:48;94235.34;;;20.00;44.02
10732;BME280;5417;42.686;23.244;2023-04-23T09:41:22;94230.47;;;19.82;42.53
10732;BME280;5417;42.686;23.244;2023-04-23T09:43:52;94224.84;;;19.27;44.18
10732;BME280;5417;42.686;23.244;2023-04-23T09:46:31;94220.06;;;18.92;44.28
10732;BME280;5417;42.686;23.244;2023-04-23T09:49:02;94233.25;;;18.78;44.21
10732;BME280;5417;42.686;23.244;2023-04-23T09:51:32;94222.75;;;18.70;44.43
10732;BME280;5417;42.686;23.244;2023-04-23T09:54:00;94206.16;;;18.84;45.86
10732;BME280;5417;42.686;23.244;2023-04-23T09:56:29;94220.09;;;19.07;43.44
10732;BME280;5417;42.686;23.244;2023-04-23T09:59:21;94222.53;;;19.09;43.53
10732;BME280;5417;42.686;23.244;2023-04-23T10:01:49;94217.72;;;19.12;42.24
10732;BME280;5417;42.686;23.244;2023-04-23T10:05:11;94211.09;;;19.31;44.35
10732;BME280;5417;42.686;23.244;2023-04-23T10:07:31;94208.38;;;19.54;44.43
10732;BME280;5417;42.686;23.244;2023-04-23T10:10:36;94211.47;;;19.58;42.13
10732;BME280;5417;42.686;23.244;2023-04-23T10:12:51;94201.09;;;19.56;42.44
10732;BME280;5417;42.686;23.244;2023-04-23T10:15:18;94195.78;;;19.71;41.80
10732;BME280;5417;42.686;23.244;2023-04-23T10:17:46;94200.63;;;19.67;41.87
10732;BME280;5417;42.686;23.244;2023-04-23T10:20:15;94191.00;;;19.30;41.49
10732;BME280;5417;42.686;23.244;2023-04-23T10:23:36;94191.88;;;19.08;43.09
10732;BME280;5417;42.686;23.244;2023-04-23T10:25:57;94184.34;;;19.05;42.84
10732;BME280;5417;42.686;23.244;2023-04-23T10:28:28;94183.25;;;19.29;42.11
10732;BME280;5417;42.686;23.244;2023-04-23T10:30:56;94178.34;;;19.40;41.44
10732;BME280;5417;42.686;23.244;2023-04-23T10:33:30;94178.03;;;19.50;41.76
10732;BME280;5417;42.686;23.244;2023-04-23T10:36:51;94168.84;;;19.61;40.34
10732;BME280;5417;42.686;23.244;2023-04-23T10:39:08;94172.50;;;19.60;41.54
10732;BME280;5417;42.686;23.244;2023-04-23T10:41:37;94166.72;;;19.85;43.37
10732;BME280;5417;42.686;23.244;2023-04-23T10:44:05;94146.72;;;19.98;42.34
10732;BME280;5417;42.686;23.244;2023-04-23T10:46:32;94151.94;;;20.12;41.15
10732;BME280;5417;42.686;23.244;2023-04-23T10:49:06;94157.41;;;20.11;40.30
10732;BME280;5417;42.686;23.244;2023-04-23T10:51:34;94146.72;;;19.98;38.26
10732;BME280;5417;42.686;23.244;2023-04-23T10:54:04;94146.78;;;19.83;38.67
10732;BME280;5417;42.686;23.244;2023-04-23T10:56:31;94133.44;;;19.91;38.95
10732;BME280;5417;42.686;23.244;2023-04-23T10:58:58;94140.25;;;20.00;38.58
10732;BME280;5417;42.686;23.244;2023-04-23T11:01:27;94130.31;;;20.02;37.18
10732;BME280;5417;42.686;23.244;2023-04-23T11:03:54;94130.63;;;19.93;37.42
10732;BME280;5417;42.686;23.244;2023-04-23T11:09:31;94120.63;;;19.88;37.13
10732;BME280;5417;42.686;23.244;2023-04-23T11:12:04;94129.63;;;19.94;35.85
10732;BME280;5417;42.686;23.244;2023-04-23T11:14:36;94110.25;;;19.87;36.22
10732;BME280;5417;42.686;23.244;2023-04-23T11:17:03;94117.47;;;19.99;36.08
10732;BME280;5417;42.686;23.244;2023-04-23T11:19:34;94102.78;;;20.18;37.41
10732;BME280;5417;42.686;23.244;2023-04-23T11:22:03;94118.84;;;20.16;36.14
10732;BME280;5417;42.686;23.244;2023-04-23T11:24:33;94095.63;;;20.12;35.60
10732;BME280;5417;42.686;23.244;2023-04-23T11:27:04;94103.56;;;20.12;35.11
10732;BME280;5417;42.686;23.244;2023-04-23T11:29:31;94112.41;;;20.26;35.52
10732;BME280;5417;42.686;23.244;2023-04-23T11:31:58;94104.25;;;20.21;34.19
10732;BME280;5417;42.686;23.244;2023-04-23T11:37:53;94091.06;;;19.99;34.66
10732;BME280;5417;42.686;23.244;2023-04-23T11:44:31;94088.97;;;19.95;35.66
10732;BME280;5417;42.686;23.244;2023-04-23T11:46:59;94081.56;;;20.05;35.49
10732;BME280;5417;42.686;23.244;2023-04-23T12:03:10;94081.66;;;20.18;31.76
10732;BME280;5417;42.686;23.244;2023-04-23T12:09:12;94054.88;;;20.00;32.76
10732;BME280;5417;42.686;23.244;2023-04-23T12:13:05;94071.56;;;20.00;33.27
10732;BME280;5417;42.686;23.244;2023-04-23T12:16:03;94077.84;;;19.99;31.38
10732;BME280;5417;42.686;23.244;2023-04-23T12:18:41;94073.19;;;20.01;30.35
10732;BME280;5417;42.686;23.244;2023-04-23T12:22:16;94067.66;;;19.96;31.66
10732;BME280;5417;42.686;23.244;2023-04-23T12:24:21;94055.25;;;19.75;32.02
10732;BME280;5417;42.686;23.244;2023-04-23T12:26:49;94051.94;;;19.67;32.85
10732;BME280;5417;42.686;23.244;2023-04-23T12:29:19;94059.72;;;19.53;32.38
10732;BME280;5417;42.686;23.244;2023-04-23T12:31:48;94062.63;;;19.59;32.96
10732;BME280;5417;42.686;23.244;2023-04-23T12:34:18;94063.53;;;19.51;32.16
10732;BME280;5417;42.686;23.244;2023-04-23T12:36:47;94060.00;;;19.44;32.08
10732;BME280;5417;42.686;23.244;2023-04-23T12:39:26;94054.09;;;19.42;32.12
10732;BME280;5417;42.686;23.244;2023-04-23T12:48:31;94056.03;;;18.82;32.28
10732;BME280;5417;42.686;23.244;2023-04-23T12:50:59;94042.28;;;18.72;32.58
10732;BME280;5417;42.686;23.244;2023-04-23T12:53:29;94051.09;;;18.65;32.83
10732;BME280;5417;42.686;23.244;2023-04-23T12:55:55;94049.09;;;18.67;33.48
10732;BME280;5417;42.686;23.244;2023-04-23T12:58:22;94040.38;;;18.66;33.04
10732;BME280;5417;42.686;23.244;2023-04-23T13:00:50;94047.09;;;18.69;33.80
10732;BME280;5417;42.686;23.244;2023-04-23T13:03:17;94041.25;;;18.58;34.26
10732;BME280;5417;42.686;23.244;2023-04-23T13:05:44;94052.28;;;18.77;34.87
10732;BME280;5417;42.686;23.244;2023-04-23T13:08:13;94038.28;;;18.91;34.42
10732;BME280;5417;42.686;23.244;2023-04-23T13:10:40;94044.72;;;19.03;33.24
10732;BME280;5417;42.686;23.244;2023-04-23T13:15:54;94035.19;;;18.87;33.12
10732;BME280;5417;42.686;23.244;2023-04-23T13:18:21;94029.84;;;18.81;34.03
10732;BME280;5417;42.686;23.244;2023-04-23T13:24:30;94023.19;;;18.85;32.50
10732;BME280;5417;42.686;23.244;2023-04-23T13:30:43;94014.47;;;19.20;33.44
10732;BME280;5417;42.686;23.244;2023-04-23T13:33:10;94020.19;;;19.24;32.52
10732;BME280;5417;42.686;23.244;2023-04-23T13:35:36;94023.72;;;19.31;32.01
10732;BME280;5417;42.686;23.244;2023-04-23T13:38:04;94019.91;;;19.19;32.18
10732;BME280;5417;42.686;23.244;2023-04-23T13:40:36;94023.28;;;19.28;32.44
10732;BME280;5417;42.686;23.244;2023-04-23T13:43:03;94023.91;;;19.30;32.19
10732;BME280;5417;42.686;23.244;2023-04-23T13:46:27;94016.94;;;19.43;32.06
10732;BME280;5417;42.686;23.244;2023-04-23T13:48:47;94020.41;;;19.44;32.10
10732;BME280;5417;42.686;23.244;2023-04-23T13:51:14;94021.22;;;19.44;31.93
10732;BME280;5417;42.686;23.244;2023-04-23T13:53:43;94016.31;;;19.41;31.90
10732;BME280;5417;42.686;23.244;2023-04-23T13:56:11;94020.22;;;19.45;32.47
10732;BME280;5417;42.686;23.244;2023-04-23T13:58:38;94025.22;;;19.55;31.53
10732;BME280;5417;42.686;23.244;2023-04-23T14:01:28;94020.19;;;19.60;31.51
10732;BME280;5417;42.686;23.244;2023-04-23T14:04:49;94019.66;;;19.50;31.71
10732;BME280;5417;42.686;23.244;2023-04-23T14:07:09;94016.06;;;19.36;31.37
10732;BME280;5417;42.686;23.244;2023-04-23T14:09:36;94012.91;;;19.26;32.40
10732;BME280;5417;42.686;23.244;2023-04-23T14:12:04;94012.72;;;19.28;32.12
10732;BME280;5417;42.686;23.244;2023-04-23T14:14:32;94007.09;;;19.31;32.08
10732;BME280;5417;42.686;23.244;2023-04-23T14:16:59;94010.16;;;19.34;32.07
10732;BME280;5417;42.686;23.244;2023-04-23T14:19:26;94000.00;;;19.16;31.63
10732;BME280;5417;42.686;23.244;2023-04-23T14:22:46;94006.16;;;19.23;32.07
10732;BME280;5417;42.686;23.244;2023-04-23T14:25:28;94006.63;;;19.27;31.61
10732;BME280;5417;42.686;23.244;2023-04-23T14:28:01;94001.69;;;19.24;31.71
10732;BME280;5417;42.686;23.244;2023-04-23T14:30:29;94010.53;;;19.31;32.50
10732;BME280;5417;42.686;23.244;2023-04-23T14:32:56;94010.41;;;19.39;32.18
10732;BME280;5417;42.686;23.244;2023-04-23T14:35:23;94021.56;;;19.20;32.26
10732;BME280;5417;42.686;23.244;2023-04-23T14:37:50;94006.28;;;19.15;32.66
10732;BME280;5417;42.686;23.244;2023-04-23T14:41:11;94000.75;;;19.10;33.00
10732;BME280;5417;42.686;23.244;2023-04-23T14:46:48;94006.69;;;18.98;32.98
10732;BME280;5417;42.686;23.244;2023-04-23T14:56:10;94009.66;;;18.73;33.50
10732;BME280;5417;42.686;23.244;2023-04-23T14:58:37;94007.53;;;18.54;33.29
10732;BME280;5417;42.686;23.244;2023-04-23T15:14:24;94010.56;;;18.66;34.11
10732;BME280;5417;42.686;23.244;2023-04-23T15:22:46;94003.72;;;18.56;36.12
10732;BME280;5417;42.686;23.244;2023-04-23T15:37:35;93980.09;;;18.34;37.90
10732;BME280;5417;42.686;23.244;2023-04-23T15:40:02;93980.28;;;18.47;37.74
10732;BME280;5417;42.686;23.244;2023-04-23T15:42:29;93980.81;;;18.42;37.07
10732;BME280;5417;42.686;23.244;2023-04-23T15:44:56;93975.38;;;18.44;36.23
10732;BME280;5417;42.686;23.244;2023-04-23T15:47:27;93975.91;;;18.54;36.70
10732;BME280;5417;42.686;23.244;2023-04-23T15:49:54;93975.38;;;18.44;36.45
10732;BME280;5417;42.686;23.244;2023-04-23T15:59:00;93954.00;;;18.09;35.97
10732;BME280;5417;42.686;23.244;2023-04-23T16:01:28;93968.66;;;18.26;36.03
10732;BME280;5417;42.686;23.244;2023-04-23T16:03:55;93971.03;;;18.36;36.19
10732;BME280;5417;42.686;23.244;2023-04-23T16:06:24;93949.94;;;18.36;36.04
10732;BME280;5417;42.686;23.244;2023-04-23T16:09:42;93969.09;;;18.45;35.60
10732;BME280;5417;42.686;23.244;2023-04-23T16:12:02;93965.94;;;18.35;35.98
10732;BME280;5417;42.686;23.244;2023-04-23T16:14:31;93967.22;;;18.24;35.85
10732;BME280;5417;42.686;23.244;2023-04-23T16:16:58;93959.53;;;18.14;36.00
10732;BME280;5417;42.686;23.244;2023-04-23T16:19:25;93960.38;;;18.29;36.06
10732;BME280;5417;42.686;23.244;2023-04-23T16:22:46;93963.66;;;18.32;35.61
10732;BME280;5417;42.686;23.244;2023-04-23T16:25:04;93964.28;;;18.34;35.53
10732;BME280;5417;42.686;23.244;2023-04-23T16:27:32;93965.56;;;18.23;35.69
10732;BME280;5417;42.686;23.244;2023-04-23T16:30:00;93959.38;;;18.31;35.67
10732;BME280;5417;42.686;23.244;2023-04-23T16:32:28;93955.09;;;18.15;35.67
10732;BME280;5417;42.686;23.244;2023-04-23T16:34:55;93956.19;;;18.20;37.04
10732;BME280;5417;42.686;23.244;2023-04-23T16:37:22;93951.75;;;18.21;37.44
10732;BME280;5417;42.686;23.244;2023-04-23T16:39:49;93953.19;;;18.09;37.74
10732;BME280;5417;42.686;23.244;2023-04-23T16:43:10;93965.81;;;17.84;38.45
10732;BME280;5417;42.686;23.244;2023-04-23T16:45:31;93965.72;;;17.92;38.59
10732;BME280;5417;42.686;23.244;2023-04-23T16:47:59;93967.91;;;17.88;38.80
10732;BME280;5417;42.686;23.244;2023-04-23T17:00:03;93961.56;;;17.37;41.68
10732;BME280;5417;42.686;23.244;2023-04-23T17:02:31;93957.94;;;17.38;41.65
10732;BME280;5417;42.686;23.244;2023-04-23T17:04:58;93960.44;;;17.54;41.64
10732;BME280;5417;42.686;23.244;2023-04-23T17:07:26;93953.03;;;17.35;42.21
10732;BME280;5417;42.686;23.244;2023-04-23T17:17:48;93963.72;;;17.11;43.47
10732;BME280;5417;42.686;23.244;2023-04-23T17:50:09;93994.78;;;16.84;44.96
10732;BME280;5417;42.686;23.244;2023-04-23T17:56:01;93993.81;;;16.77;45.44
10732;BME280;5417;42.686;23.244;2023-04-23T18:05:11;94015.25;;;16.66;46.15
10732;BME280;5417;42.686;23.244;2023-04-23T18:11:13;94019.97;;;16.62;46.01
10732;BME280;5417;42.686;23.244;2023-04-23T18:14:34;94030.00;;;16.67;46.33
10732;BME280;5417;42.686;23.244;2023-04-23T18:20:24;94019.50;;;16.51;46.41
10732;BME280;5417;42.686;23.244;2023-04-23T18:22:52;94003.13;;;16.40;46.57
10732;BME280;5417;42.686;23.244;2023-04-23T18:25:20;94026.41;;;16.52;46.52
10732;BME280;5417;42.686;23.244;2023-04-23T18:28:09;94041.53;;;16.50;46.28
10732;BME280;5417;42.686;23.244;2023-04-23T18:30:35;94037.44;;;16.39;46.76
10732;BME280;5417;42.686;23.244;2023-04-23T18:33:14;94050.09;;;16.35;46.71
10732;BME280;5417;42.686;23.244;2023-04-23T18:35:49;94040.94;;;16.23;46.89
10732;BME280;5417;42.686;23.244;2023-04-23T18:38:42;94052.25;;;16.32;46.91
10732;BME280;5417;42.686;23.244;2023-04-23T18:54:47;94056.84;;;16.30;46.82
10732;BME280;5417;42.686;23.244;2023-04-23T18:57:13;94045.06;;;16.18;47.01
10732;BME280;5417;42.686;23.244;2023-04-23T19:03:16;94056.22;;;16.12;47.30
10732;BME280;5417;42.686;23.244;2023-04-23T19:10:09;94061.81;;;15.92;48.00
10732;BME280;5417;42.686;23.244;2023-04-23T19:12:37;94057.72;;;15.90;48.24
10732;BME280;5417;42.686;23.244;2023-04-23T19:15:05;94049.84;;;15.90;47.89
10732;BME280;5417;42.686;23.244;2023-04-23T19:17:46;94055.25;;;15.96;48.48
10732;BME280;5417;42.686;23.244;2023-04-23T19:20:13;94054.59;;;15.94;47.79
10732;BME280;5417;42.686;23.244;2023-04-23T19:22:42;94047.22;;;15.90;47.78
10732;BME280;5417;42.686;23.244;2023-04-23T19:25:11;94052.78;;;15.87;47.38
10732;BME280;5417;42.686;23.244;2023-04-23T19:47:13;94054.22;;;15.57;50.05
10732;BME280;5417;42.686;23.244;2023-04-23T19:53:22;94061.59;;;15.37;50.85
10732;BME280;5417;42.686;23.244;2023-04-23T19:55:49;94057.16;;;15.29;51.18
10732;BME280;5417;42.686;23.244;2023-04-23T19:59:10;94057.16;;;15.29;51.88
10732;BME280;5417;42.686;23.244;2023-04-23T20:01:41;94059.94;;;15.28;51.50
10732;BME280;5417;42.686;23.244;2023-04-23T20:04:09;94043.97;;;15.05;52.17
10732;BME280;5417;42.686;23.244;2023-04-23T20:06:36;94059.72;;;15.05;52.96
10732;BME280;5417;42.686;23.244;2023-04-23T20:09:03;94060.25;;;15.17;51.61
10732;BME280;5417;42.686;23.244;2023-04-23T20:11:52;94065.34;;;15.18;51.54
10732;BME280;5417;42.686;23.244;2023-04-23T20:14:19;94072.22;;;15.11;52.09